createdAt,value
2022-11-26T00:00:56.139Z,5.93
2022-11-26T00:03:24.587Z,6.93
2022-11-26T00:05:57.781Z,6.90
2022-11-26T00:08:34.569Z,7.03
2022-11-26T00:11:03.758Z,6.20
2022-11-26T00:13:32.479Z,7.03
2022-11-26T00:16:00.595Z,8.77
2022-11-26T00:18:28.659Z,5.43
2022-11-26T00:21:00.935Z,5.47
2022-11-26T00:23:30.889Z,7.67
2022-11-26T00:26:01.573Z,10.07
2022-11-26T00:28:32.794Z,13.97
2022-11-26T00:31:03.954Z,12.47
2022-11-26T00:33:33.128Z,12.40
2022-11-26T00:36:07.721Z,10.07
2022-11-26T00:38:37.171Z,11.57
2022-11-26T00:41:05.494Z,11.23
2022-11-26T00:43:33.596Z,10.43
2022-11-26T00:46:02.529Z,10.53
2022-11-26T00:48:31.894Z,8.90
2022-11-26T00:51:00.193Z,10.13
2022-11-26T00:53:29.361Z,7.57
2022-11-26T00:55:59.132Z,5.80
2022-11-26T00:58:30.554Z,8.73
2022-11-26T01:01:00.684Z,5.47
2022-11-26T01:03:30.338Z,7.27
2022-11-26T01:06:02.267Z,7.20
2022-11-26T01:08:34.009Z,5.60
2022-11-26T01:11:06.027Z,8.13
2022-11-26T01:13:34.752Z,4.90
2022-11-26T01:16:14.410Z,10.50
2022-11-26T01:18:42.624Z,6.97
2022-11-26T01:21:11.256Z,11.60
2022-11-26T01:23:39.565Z,7.77
2022-11-26T01:26:16.902Z,5.87
2022-11-26T01:28:45.636Z,7.77
2022-11-26T01:31:17.489Z,5.63
2022-11-26T01:33:46.291Z,7.93
2022-11-26T01:36:24.496Z,7.03
2022-11-26T01:38:53.106Z,6.67
2022-11-26T01:41:42.148Z,7.07
2022-11-26T01:44:19.849Z,5.03
2022-11-26T01:46:49.509Z,7.00
2022-11-26T01:49:22.152Z,5.50
2022-11-26T01:51:57.079Z,6.87
2022-11-26T01:54:25.729Z,4.47
2022-11-26T01:56:57.951Z,6.20
2022-11-26T01:59:31.298Z,6.10
2022-11-26T02:02:01.484Z,5.77
2022-11-26T02:04:34.163Z,8.33
2022-11-26T02:07:02.464Z,5.60
2022-11-26T02:09:31.952Z,3.40
2022-11-26T02:12:01.635Z,10.27
2022-11-26T02:14:33.468Z,7.80
2022-11-26T02:17:21.193Z,5.87
2022-11-26T02:20:30.119Z,4.73
2022-11-26T02:23:43.965Z,5.20
2022-11-26T02:27:03.681Z,3.17
2022-11-26T02:30:06.823Z,5.97
2022-11-26T02:32:54.364Z,7.50
2022-11-26T02:35:31.661Z,5.13
2022-11-26T02:38:04.186Z,5.37
2022-11-26T02:40:32.789Z,4.90
2022-11-26T02:43:01.130Z,2.87
2022-11-26T02:45:34.957Z,3.20
2022-11-26T02:48:07.982Z,4.10
2022-11-26T02:50:40.430Z,9.90
2022-11-26T02:53:10.499Z,6.63
2022-11-26T02:55:44.202Z,2.57
2022-11-26T02:58:12.433Z,5.57
2022-11-26T03:00:43.882Z,5.20
2022-11-26T03:03:23.733Z,4.83
2022-11-26T03:05:55.574Z,5.27
2022-11-26T03:08:25.594Z,5.17
2022-11-26T03:10:53.887Z,6.47
2022-11-26T03:13:22.203Z,4.37
2022-11-26T03:15:51.752Z,3.60
2022-11-26T03:18:20.045Z,4.47
2022-11-26T03:20:52.131Z,6.30
2022-11-26T03:23:20.597Z,3.03
2022-11-26T03:25:48.823Z,5.57
2022-11-26T03:28:16.979Z,5.83
2022-11-26T03:30:45.117Z,3.60
2022-11-26T03:33:14.579Z,4.00
2022-11-26T03:35:42.859Z,5.57
2022-11-26T03:38:10.992Z,4.20
2022-11-26T03:40:39.148Z,8.07
2022-11-26T03:43:07.314Z,5.43
2022-11-26T03:45:35.495Z,3.57
2022-11-26T03:48:03.637Z,7.93
2022-11-26T03:50:33.116Z,6.80
2022-11-26T03:53:01.256Z,4.37
2022-11-26T03:55:29.386Z,3.00
2022-11-26T03:57:57.513Z,5.43
2022-11-26T04:00:25.755Z,1.67
2022-11-26T04:02:53.941Z,4.63
2022-11-26T04:05:22.135Z,2.47
2022-11-26T04:07:51.684Z,4.80
2022-11-26T04:10:20.064Z,6.90
2022-11-26T04:12:48.159Z,4.53
2022-11-26T04:15:16.450Z,5.50
2022-11-26T04:17:44.601Z,6.03
2022-11-26T04:20:13.641Z,5.40
2022-11-26T04:22:41.790Z,5.00
2022-11-26T04:25:11.866Z,5.33
2022-11-26T04:27:40.219Z,4.33
2022-11-26T04:30:10.280Z,3.43
2022-11-26T04:32:39.869Z,6.37
2022-11-26T04:35:09.467Z,4.17
2022-11-26T04:37:37.819Z,5.77
2022-11-26T04:40:08.256Z,5.13
2022-11-26T04:42:37.800Z,5.77
2022-11-26T04:45:06.945Z,5.33
2022-11-26T04:47:37.815Z,5.43
2022-11-26T04:50:10.953Z,3.43
2022-11-26T04:52:40.361Z,3.43
2022-11-26T04:55:11.726Z,4.37
2022-11-26T04:57:41.298Z,7.33
2022-11-26T05:00:11.996Z,3.90
2022-11-26T05:02:40.315Z,3.07
2022-11-26T05:05:09.374Z,7.43
2022-11-26T05:07:37.567Z,6.57
2022-11-26T05:10:08.573Z,3.53
2022-11-26T05:12:36.903Z,4.00
2022-11-26T05:15:07.983Z,5.73
2022-11-26T05:17:36.137Z,4.10
2022-11-26T05:20:05.084Z,7.60
2022-11-26T05:22:33.306Z,8.00
2022-11-26T05:25:01.474Z,8.13
2022-11-26T05:27:29.611Z,5.27
2022-11-26T05:29:57.737Z,6.67
2022-11-26T05:32:27.685Z,6.47
2022-11-26T05:35:00.032Z,4.37
2022-11-26T05:37:28.617Z,5.03
2022-11-26T05:39:56.734Z,7.23
2022-11-26T05:42:24.858Z,6.33
2022-11-26T05:44:53.122Z,3.57
2022-11-26T05:47:21.258Z,2.93
2022-11-26T05:49:50.713Z,5.07
2022-11-26T05:52:19.026Z,3.13
2022-11-26T05:54:47.229Z,4.20
2022-11-26T05:57:15.631Z,3.30
2022-11-26T05:59:43.918Z,3.57
2022-11-26T06:02:12.144Z,7.37
2022-11-26T06:04:40.684Z,3.53
2022-11-26T06:07:10.856Z,6.37
2022-11-26T06:09:39.178Z,6.03
2022-11-26T06:12:07.803Z,4.30
2022-11-26T06:14:40.306Z,11.00
2022-11-26T06:17:09.772Z,4.13
2022-11-26T06:19:37.970Z,7.90
2022-11-26T06:22:06.139Z,5.00
2022-11-26T06:24:36.586Z,8.23
2022-11-26T06:27:05.290Z,7.10
2022-11-26T06:29:33.733Z,6.37
2022-11-26T06:32:01.866Z,6.93
2022-11-26T06:34:36.373Z,6.47
2022-11-26T06:37:05.039Z,8.07
2022-11-26T06:39:59.424Z,6.10
2022-11-26T06:42:33.141Z,5.80
2022-11-26T06:45:01.275Z,5.30
2022-11-26T06:47:29.477Z,5.27
2022-11-26T06:49:57.586Z,4.33
2022-11-26T06:52:25.766Z,4.37
2022-11-26T06:54:53.911Z,4.03
2022-11-26T06:57:23.335Z,4.10
2022-11-26T06:59:53.097Z,4.77
2022-11-26T07:02:21.408Z,4.80
2022-11-26T07:04:49.518Z,6.70
2022-11-26T07:07:17.708Z,5.17
2022-11-26T07:09:45.918Z,4.03
2022-11-26T07:12:14.190Z,2.30
2022-11-26T07:14:44.433Z,5.63
2022-11-26T07:17:12.607Z,1.93
2022-11-26T07:19:40.786Z,5.37
2022-11-26T07:22:08.963Z,3.70
2022-11-26T07:24:37.407Z,2.17
2022-11-26T07:27:05.788Z,5.13
2022-11-26T07:29:34.119Z,2.90
2022-11-26T07:32:03.740Z,3.50
2022-11-26T07:34:32.128Z,4.33
2022-11-26T07:37:00.324Z,5.03
2022-11-26T07:39:28.490Z,24.43
2022-11-26T07:41:56.607Z,6.87
2022-11-26T07:44:24.760Z,5.07
2022-11-26T07:46:52.897Z,5.63
2022-11-26T07:49:22.370Z,5.53
2022-11-26T07:51:50.494Z,4.43
2022-11-26T07:54:18.657Z,4.73
2022-11-26T07:56:52.685Z,7.57
2022-11-26T07:59:24.106Z,9.53
2022-11-26T08:01:53.016Z,11.43
2022-11-26T08:04:24.174Z,11.67
2022-11-26T08:06:52.504Z,9.30
2022-11-26T08:09:27.535Z,8.53
2022-11-26T08:11:57.159Z,10.67
2022-11-26T08:14:25.541Z,8.30
2022-11-26T08:16:53.822Z,7.70
2022-11-26T08:19:23.622Z,5.23
2022-11-26T08:21:51.816Z,8.13
2022-11-26T08:24:22.049Z,6.03
2022-11-26T08:26:51.715Z,8.07
2022-11-26T08:29:19.941Z,30.43
2022-11-26T08:31:49.537Z,33.27
2022-11-26T08:34:18.203Z,13.90
2022-11-26T08:36:47.815Z,9.10
2022-11-26T08:39:17.683Z,13.43
2022-11-26T08:41:52.024Z,10.63
2022-11-26T08:44:21.553Z,8.90
2022-11-26T08:46:50.225Z,12.20
2022-11-26T08:49:18.682Z,7.67
2022-11-26T08:51:48.256Z,7.33
2022-11-26T08:54:16.500Z,4.57
2022-11-26T08:56:44.765Z,6.77
2022-11-26T08:59:12.871Z,5.50
2022-11-26T09:01:41.409Z,9.03
2022-11-26T09:04:09.531Z,6.17
2022-11-26T09:06:37.841Z,8.13
2022-11-26T09:09:17.599Z,7.20
2022-11-26T09:11:50.041Z,4.00
2022-11-26T09:14:21.254Z,8.53
2022-11-26T09:16:49.596Z,10.83
2022-11-26T09:19:19.031Z,9.23
2022-11-26T09:21:48.466Z,4.10
2022-11-26T09:24:19.787Z,11.30
2022-11-26T09:26:48.929Z,10.60
2022-11-26T09:29:20.154Z,5.30
2022-11-26T09:34:44.340Z,6.23
2022-11-26T09:37:12.597Z,9.40
2022-11-26T09:39:42.059Z,4.93
2022-11-26T09:42:27.463Z,7.83
2022-11-26T09:45:09.847Z,9.73
2022-11-26T09:47:42.691Z,6.43
2022-11-26T09:50:27.452Z,4.83
2022-11-26T09:53:01.461Z,6.70
2022-11-26T09:55:34.572Z,8.87
2022-11-26T09:58:12.266Z,5.73
2022-11-26T10:00:44.889Z,6.07
2022-11-26T10:03:17.236Z,9.73
2022-11-26T10:05:57.164Z,8.40
2022-11-26T10:12:26.079Z,6.60
2022-11-26T10:15:04.365Z,9.23
2022-11-26T10:17:44.556Z,7.57
2022-11-26T10:21:08.066Z,5.10
2022-11-26T10:23:45.540Z,4.83
2022-11-26T10:26:18.158Z,3.67
2022-11-26T10:28:50.328Z,8.70
2022-11-26T10:31:23.168Z,8.00
2022-11-26T10:33:56.875Z,7.90
2022-11-26T10:36:29.827Z,9.60
2022-11-26T10:38:58.017Z,8.77
2022-11-26T10:41:31.107Z,8.93
2022-11-26T10:44:30.423Z,5.87
2022-11-26T10:46:59.788Z,5.97
2022-11-26T10:49:31.185Z,4.10
2022-11-26T10:52:03.523Z,10.70
2022-11-26T10:54:36.046Z,5.27
2022-11-26T10:57:14.759Z,6.80
2022-11-26T10:59:53.019Z,6.13
2022-11-26T11:02:33.971Z,5.77
2022-11-26T11:05:06.819Z,4.20
2022-11-26T11:07:44.134Z,7.03
2022-11-26T11:10:18.572Z,6.03
2022-11-26T11:12:51.146Z,5.70
2022-11-26T11:15:25.274Z,6.80
2022-11-26T11:17:59.973Z,7.90
2022-11-26T11:20:36.130Z,11.80
2022-11-26T11:23:35.008Z,5.07
2022-11-26T11:26:41.536Z,6.77
2022-11-26T11:29:27.529Z,4.40
2022-11-26T11:31:58.766Z,3.60
2022-11-26T11:34:32.774Z,7.60
2022-11-26T11:37:03.606Z,3.37
2022-11-26T11:39:34.784Z,6.87
2022-11-26T11:42:07.555Z,5.90
2022-11-26T11:44:43.971Z,4.67
2022-11-26T11:47:35.240Z,3.70
2022-11-26T11:50:21.916Z,5.07
2022-11-26T11:53:08.661Z,5.43
2022-11-26T11:55:59.453Z,7.47
2022-11-26T11:58:54.997Z,7.43
2022-11-26T12:01:43.773Z,5.67
2022-11-26T12:04:44.166Z,8.87
2022-11-26T12:07:36.585Z,6.93
2022-11-26T12:10:15.009Z,7.60
2022-11-26T12:12:47.679Z,6.23
2022-11-26T12:15:27.309Z,7.13
2022-11-26T12:18:04.844Z,6.10
2022-11-26T12:20:41.178Z,6.60
2022-11-26T12:23:26.959Z,6.77
2022-11-26T12:26:01.550Z,7.20
2022-11-26T12:28:32.879Z,8.43
2022-11-26T12:31:06.643Z,7.33
2022-11-26T12:33:43.444Z,8.27
2022-11-26T12:36:23.452Z,7.90
2022-11-26T12:38:55.170Z,10.13
2022-11-26T12:41:28.464Z,6.50
2022-11-26T12:44:06.278Z,12.00
2022-11-26T12:46:44.688Z,6.50
2022-11-26T12:49:29.111Z,8.83
2022-11-26T12:52:17.166Z,12.37
2022-11-26T12:54:57.705Z,8.50
2022-11-26T12:57:33.684Z,8.30
2022-11-26T13:00:08.685Z,6.73
2022-11-26T13:02:41.254Z,13.97
2022-11-26T13:05:16.224Z,8.57
2022-11-26T13:08:07.237Z,7.43
2022-11-26T13:10:53.222Z,5.33
2022-11-26T13:13:33.578Z,10.17
2022-11-26T13:16:10.504Z,3.93
2022-11-26T13:18:43.986Z,10.50
2022-11-26T13:21:39.854Z,5.40
2022-11-26T13:24:44.314Z,8.10
2022-11-26T13:27:39.191Z,5.67
2022-11-26T13:30:21.054Z,8.60
2022-11-26T13:33:27.217Z,5.70
2022-11-26T13:36:37.825Z,9.30
2022-11-26T13:39:35.140Z,6.97
2022-11-26T13:42:27.181Z,6.90
2022-11-26T13:45:40.398Z,6.40
2022-11-26T13:48:14.116Z,7.03
2022-11-26T13:50:48.151Z,9.67
2022-11-26T13:53:26.823Z,5.50
2022-11-26T13:56:01.837Z,7.57
2022-11-26T13:58:34.463Z,5.53
2022-11-26T14:01:36.949Z,6.03
2022-11-26T14:04:08.572Z,7.30
2022-11-26T14:06:37.465Z,11.95
2022-11-26T14:09:07.107Z,8.17
2022-11-26T14:11:57.949Z,5.83
2022-11-26T14:14:37.973Z,6.63
2022-11-26T14:17:18.783Z,5.83
2022-11-26T14:20:11.482Z,9.17
2022-11-26T14:22:40.274Z,14.07
2022-11-26T14:25:13.286Z,6.50
2022-11-26T14:27:55.643Z,6.67
2022-11-26T14:30:32.334Z,6.13
2022-11-26T14:33:15.678Z,5.30
2022-11-26T14:35:55.604Z,11.87
2022-11-26T14:38:27.335Z,6.53
2022-11-26T14:41:01.211Z,7.83
2022-11-26T14:44:08.813Z,8.07
2022-11-26T14:46:37.541Z,5.57
2022-11-26T14:49:20.841Z,7.07
2022-11-26T14:51:53.419Z,15.33
2022-11-26T14:54:29.345Z,7.30
2022-11-26T14:57:06.159Z,6.73
2022-11-26T14:59:35.789Z,6.03
2022-11-26T15:02:28.575Z,6.17
2022-11-26T15:05:05.640Z,6.87
2022-11-26T15:07:33.939Z,13.07
2022-11-26T15:10:05.010Z,7.50
2022-11-26T15:12:34.641Z,7.43
2022-11-26T15:15:06.005Z,7.97
2022-11-26T15:17:35.370Z,8.17
2022-11-26T15:20:08.772Z,12.20
2022-11-26T15:22:40.544Z,8.20
2022-11-26T15:25:18.159Z,8.33
2022-11-26T15:27:59.084Z,5.87
2022-11-26T15:30:31.142Z,9.60
2022-11-26T15:33:02.102Z,11.10
2022-11-26T15:35:39.793Z,6.47
2022-11-26T15:38:13.613Z,12.43
2022-11-26T15:40:48.465Z,9.27
2022-11-26T15:43:25.771Z,10.07
2022-11-26T15:45:58.896Z,10.10
2022-11-26T15:48:50.870Z,11.67
2022-11-26T15:51:30.694Z,7.60
2022-11-26T15:54:03.105Z,7.87
2022-11-26T15:56:35.169Z,9.43
2022-11-26T15:59:14.483Z,9.30
2022-11-26T16:01:47.798Z,8.50
2022-11-26T16:04:43.294Z,7.13
2022-11-26T16:07:17.594Z,7.83
2022-11-26T16:09:47.461Z,11.93
2022-11-26T16:12:32.435Z,9.80
2022-11-26T16:15:21.527Z,9.63
2022-11-26T16:17:52.165Z,12.57
2022-11-26T16:20:23.593Z,6.70
2022-11-26T16:22:54.629Z,10.63
2022-11-26T16:25:26.164Z,8.50
2022-11-26T16:28:07.294Z,8.93
2022-11-26T16:30:36.097Z,8.03
2022-11-26T16:33:07.144Z,7.07
2022-11-26T16:35:51.195Z,16.43
2022-11-26T16:38:21.505Z,10.47
2022-11-26T16:40:50.570Z,11.70
2022-11-26T16:43:19.379Z,10.03
2022-11-26T16:45:48.704Z,7.90
2022-11-26T16:48:26.760Z,10.23
2022-11-26T16:50:56.782Z,9.93
2022-11-26T16:53:25.162Z,13.00
2022-11-26T16:55:54.615Z,14.77
2022-11-26T16:58:28.967Z,8.37
2022-11-26T17:00:58.276Z,9.03
2022-11-26T17:03:32.724Z,9.83
2022-11-26T17:06:05.486Z,16.80
2022-11-26T17:08:35.247Z,13.53
2022-11-26T17:11:03.424Z,12.10
2022-11-26T17:13:31.644Z,14.67
2022-11-26T17:16:03.048Z,14.07
2022-11-26T17:18:33.041Z,13.47
2022-11-26T17:21:01.334Z,10.03
2022-11-26T17:23:29.441Z,14.57
2022-11-26T17:25:57.736Z,9.77
2022-11-26T17:28:26.545Z,12.40
2022-11-26T17:30:55.875Z,12.63
2022-11-26T17:33:24.039Z,12.77
2022-11-26T17:35:53.542Z,10.87
2022-11-26T17:38:22.779Z,15.17
2022-11-26T17:40:50.909Z,14.20
2022-11-26T17:43:19.025Z,18.30
2022-11-26T17:45:47.217Z,16.23
2022-11-26T17:48:15.484Z,16.00
2022-11-26T17:50:43.690Z,13.37
2022-11-26T17:53:13.209Z,15.83
2022-11-26T17:55:41.434Z,11.77
2022-11-26T17:58:12.143Z,25.40
2022-11-26T18:00:40.383Z,15.67
2022-11-26T18:03:08.760Z,14.33
2022-11-26T18:05:41.789Z,17.00
2022-11-26T18:08:10.274Z,16.03
2022-11-26T18:10:41.972Z,21.23
2022-11-26T18:13:10.314Z,23.60
2022-11-26T18:15:38.430Z,24.77
2022-11-26T18:18:07.544Z,28.60
2022-11-26T18:20:35.834Z,28.53
2022-11-26T18:23:04.077Z,27.73
2022-11-26T18:25:34.691Z,32.30
2022-11-26T18:28:04.207Z,49.50
2022-11-26T18:30:32.385Z,58.47
2022-11-26T18:33:01.713Z,44.50
2022-11-26T18:35:29.901Z,30.33
2022-11-26T18:37:59.464Z,30.70
2022-11-26T18:40:27.575Z,22.40
2022-11-26T18:42:55.945Z,23.63
2022-11-26T18:45:25.428Z,22.57
2022-11-26T18:47:53.629Z,18.23
2022-11-26T18:50:21.867Z,21.90
2022-11-26T18:52:49.976Z,25.03
2022-11-26T18:55:18.900Z,21.43
2022-11-26T18:57:46.989Z,19.43
2022-11-26T19:00:16.834Z,18.70
2022-11-26T19:02:46.348Z,15.97
2022-11-26T19:05:15.006Z,17.63
2022-11-26T19:07:43.245Z,20.90
2022-11-26T19:13:05.706Z,18.77
2022-11-26T19:15:34.515Z,18.13
2022-11-26T19:18:03.965Z,15.77
2022-11-26T19:20:32.143Z,16.33
2022-11-26T19:23:00.221Z,16.73
2022-11-26T19:25:30.173Z,20.07
2022-11-26T19:28:03.455Z,15.77
2022-11-26T19:30:33.116Z,13.63
2022-11-26T19:33:02.766Z,18.87
2022-11-26T19:35:30.895Z,15.80
2022-11-26T19:37:59.146Z,13.70
2022-11-26T19:40:27.599Z,12.87
2022-11-26T19:42:55.853Z,15.50
2022-11-26T19:45:24.668Z,22.37
2022-11-26T19:47:52.923Z,18.43
2022-11-26T19:50:22.407Z,14.77
2022-11-26T19:52:50.676Z,14.17
2022-11-26T19:55:18.972Z,11.87
2022-11-26T19:57:47.129Z,23.30
2022-11-26T20:00:26.055Z,14.13
2022-11-26T20:02:54.321Z,13.80
2022-11-26T20:05:23.874Z,11.37
2022-11-26T20:07:52.071Z,12.50
2022-11-26T20:10:20.693Z,13.27
2022-11-26T20:12:48.793Z,21.93
2022-11-26T20:15:18.198Z,11.63
2022-11-26T20:17:46.305Z,12.37
2022-11-26T20:20:14.644Z,10.43
2022-11-26T20:22:44.118Z,9.30
2022-11-26T20:25:15.305Z,9.97
2022-11-26T20:27:49.661Z,11.77
2022-11-26T20:30:42.005Z,14.10
2022-11-26T20:33:11.761Z,12.47
2022-11-26T20:35:41.430Z,9.60
2022-11-26T20:38:11.189Z,9.83
2022-11-26T20:40:40.999Z,12.10
2022-11-26T20:43:09.305Z,12.13
2022-11-26T20:45:38.001Z,10.27
2022-11-26T20:48:06.555Z,10.37
2022-11-26T20:50:34.767Z,10.33
2022-11-26T20:53:02.922Z,11.17
2022-11-26T20:55:32.435Z,10.57
2022-11-26T20:58:00.576Z,11.17
2022-11-26T21:00:28.665Z,12.10
2022-11-26T21:02:56.983Z,10.63
2022-11-26T21:05:25.691Z,10.47
2022-11-26T21:07:53.882Z,12.83
2022-11-26T21:10:25.142Z,20.67
2022-11-26T21:12:54.644Z,13.57
2022-11-26T21:15:23.613Z,12.47
2022-11-26T21:17:52.566Z,18.43
2022-11-26T21:20:20.702Z,10.63
2022-11-26T21:22:48.863Z,12.47
2022-11-26T21:25:17.088Z,10.33
2022-11-26T21:27:45.223Z,13.27
2022-11-26T21:30:16.705Z,10.27
2022-11-26T21:32:44.878Z,12.77
2022-11-26T21:35:12.959Z,19.60
2022-11-26T21:37:41.040Z,11.53
2022-11-26T21:40:11.249Z,10.27
2022-11-26T21:42:39.376Z,11.70
2022-11-26T21:45:09.280Z,10.40
2022-11-26T21:47:38.745Z,12.13
2022-11-26T21:50:10.564Z,9.60
2022-11-26T21:52:39.088Z,12.50
2022-11-26T21:55:33.057Z,12.50
2022-11-26T21:58:03.147Z,12.53
2022-11-26T22:00:31.658Z,12.03
2022-11-26T22:03:11.309Z,14.33
2022-11-26T22:05:41.711Z,14.00
2022-11-26T22:08:10.079Z,12.33
2022-11-26T22:10:38.587Z,11.63
2022-11-26T22:13:12.407Z,12.77
2022-11-26T22:15:46.639Z,11.53
2022-11-26T22:18:16.189Z,10.93
2022-11-26T22:20:52.296Z,8.57
2022-11-26T22:23:26.849Z,9.33
2022-11-26T22:25:55.009Z,9.53
2022-11-26T22:28:28.483Z,7.33
2022-11-26T22:30:58.197Z,8.53
2022-11-26T22:33:27.725Z,10.87
2022-11-26T22:35:55.786Z,9.40
2022-11-26T22:38:23.941Z,10.77
2022-11-26T22:40:52.003Z,12.97
2022-11-26T22:43:20.134Z,11.60
2022-11-26T22:45:48.484Z,13.07
2022-11-26T22:48:16.607Z,11.17
2022-11-26T22:50:52.693Z,9.20
2022-11-26T22:53:21.157Z,9.17
2022-11-26T22:55:54.026Z,8.90
2022-11-26T22:58:23.087Z,9.03
2022-11-26T23:00:54.264Z,11.10
2022-11-26T23:03:22.462Z,9.60
2022-11-26T23:06:08.339Z,7.63
2022-11-26T23:08:37.445Z,9.53
2022-11-26T23:11:18.192Z,9.33
2022-11-26T23:13:48.277Z,13.30
2022-11-26T23:16:22.378Z,6.73
2022-11-26T23:18:51.563Z,9.00
2022-11-26T23:21:23.765Z,8.37
2022-11-26T23:23:52.991Z,12.70
2022-11-26T23:26:27.139Z,7.77
2022-11-26T23:28:57.757Z,9.60
2022-11-26T23:31:28.906Z,13.03
2022-11-26T23:33:57.395Z,13.17
2022-11-26T23:36:28.578Z,9.90
2022-11-26T23:38:59.713Z,8.90
2022-11-26T23:41:28.090Z,8.13
2022-11-26T23:43:56.409Z,8.03
2022-11-26T23:46:27.359Z,8.90
2022-11-26T23:48:56.003Z,9.80
2022-11-26T23:51:30.324Z,7.57
2022-11-26T23:53:58.609Z,7.30
2022-11-26T23:56:29.273Z,7.57
2022-11-26T23:59:02.401Z,9.00
